Aline, Pennsylvania
Current Conditions -  °F | °C
As of 6:53 AM on Friday 24 Oct 2014 (Local Time) from KSEG Reporting Station
Broken Clouds Broken Clouds  
Wind Chill: 12°   Ceiling: 4300
Heat Index: 12°   Visibility: 10mi
Dew Point:   Wind: 5mph
Humidity: 66%   Direction: NA
Pressure: 29.94"   Gusts: NA
Location:  40.6989°N, 77.0073°W
Report Text: KSEG 241053Z AUTO VRB04KT 10SM BKN043 12/06 A2994 RMK AO2 SLP139 T01220061
Loading
Personal Weather Stations






























Interactive Weather Map
Tropical Storm Tracking
New forecast layout! Learn more

10-Day Weather Forecast

Advertisements
Track Severe Weather on mobile